createdAt,value
2022-08-17T00:00:01.709Z,59.98
2022-08-17T00:02:29.383Z,60.14
2022-08-17T00:04:58.139Z,60.14
2022-08-17T00:07:25.097Z,60.09
2022-08-17T00:09:52.049Z,60.06
2022-08-17T00:12:41.141Z,60.15
2022-08-17T00:15:08.243Z,60.11
2022-08-17T00:17:37.701Z,59.88
2022-08-17T00:20:05.503Z,60.04
2022-08-17T00:22:36.358Z,60.21
2022-08-17T00:25:09.785Z,60.31
2022-08-17T00:27:37.196Z,60.39
2022-08-17T00:30:05.991Z,60.56
2022-08-17T00:33:11.678Z,60.68
2022-08-17T00:35:31.454Z,60.77
2022-08-17T00:37:58.302Z,60.70
2022-08-17T00:40:25.265Z,60.61
2022-08-17T00:42:53.529Z,60.59
2022-08-17T00:45:20.810Z,60.59
2022-08-17T00:47:47.868Z,60.31
2022-08-17T00:50:17.307Z,60.27
2022-08-17T00:52:48.965Z,60.30
2022-08-17T00:55:16.015Z,60.55
2022-08-17T00:57:44.716Z,60.69
2022-08-17T01:00:26.860Z,60.60
2022-08-17T01:03:14.460Z,60.50
2022-08-17T01:05:42.317Z,60.56
2022-08-17T01:08:11.544Z,60.65
2022-08-17T01:10:59.140Z,60.82
2022-08-17T01:13:40.149Z,60.82
2022-08-17T01:16:18.594Z,60.76
2022-08-17T01:18:48.178Z,60.71
2022-08-17T01:21:33.503Z,60.65
2022-08-17T01:24:01.278Z,60.64
2022-08-17T01:26:28.641Z,60.67
2022-08-17T01:28:55.977Z,60.71
2022-08-17T01:31:24.939Z,60.75
2022-08-17T01:33:51.868Z,60.82
2022-08-17T01:36:18.921Z,60.84
2022-08-17T01:38:45.875Z,60.95
2022-08-17T01:41:14.579Z,61.19
2022-08-17T01:43:45.727Z,61.28
2022-08-17T01:46:16.143Z,61.48
2022-08-17T01:48:43.933Z,61.58
2022-08-17T01:51:10.887Z,61.62
2022-08-17T01:53:40.196Z,61.56
2022-08-17T01:56:10.839Z,61.46
2022-08-17T01:58:38.406Z,61.31
2022-08-17T02:01:06.313Z,61.14
2022-08-17T02:03:34.758Z,61.06
2022-08-17T02:06:02.521Z,61.02
2022-08-17T02:08:39.025Z,61.01
2022-08-17T02:11:22.938Z,61.02
2022-08-17T02:13:57.901Z,61.06
2022-08-17T02:16:37.715Z,61.19
2022-08-17T02:19:07.061Z,61.33
2022-08-17T02:21:34.584Z,61.41
2022-08-17T02:24:01.532Z,61.51
2022-08-17T02:26:28.479Z,61.53
2022-08-17T02:28:55.967Z,61.61
2022-08-17T02:31:22.883Z,61.49
2022-08-17T02:34:00.459Z,61.34
2022-08-17T02:36:35.268Z,61.25
2022-08-17T02:39:07.290Z,61.26
2022-08-17T02:41:35.338Z,61.33
2022-08-17T02:44:02.741Z,61.33
2022-08-17T02:46:31.295Z,61.32
2022-08-17T02:49:00.083Z,61.44
2022-08-17T02:51:28.266Z,61.49
2022-08-17T02:54:05.335Z,61.39
2022-08-17T02:56:42.841Z,61.67
2022-08-17T02:59:09.789Z,61.66
2022-08-17T03:01:36.815Z,61.65
2022-08-17T03:04:04.292Z,61.88
2022-08-17T03:06:32.180Z,62.01
2022-08-17T03:08:59.137Z,61.96
2022-08-17T03:11:26.290Z,61.98
2022-08-17T03:13:56.520Z,62.05
2022-08-17T03:16:23.474Z,62.11
2022-08-17T03:18:50.424Z,62.19
2022-08-17T03:21:17.379Z,62.07
2022-08-17T03:23:44.231Z,62.05
2022-08-17T03:26:15.582Z,61.96
2022-08-17T03:28:43.367Z,61.94
2022-08-17T03:31:10.320Z,61.93
2022-08-17T03:33:37.276Z,61.99
2022-08-17T03:36:04.950Z,62.02
2022-08-17T03:38:39.223Z,61.90
2022-08-17T03:41:07.351Z,61.77
2022-08-17T03:43:34.912Z,61.59
2022-08-17T03:46:28.160Z,61.69
2022-08-17T03:49:24.530Z,61.80
2022-08-17T03:52:10.334Z,61.89
2022-08-17T03:54:55.929Z,61.94
2022-08-17T03:57:23.078Z,62.09
2022-08-17T03:59:50.338Z,62.06
2022-08-17T04:02:26.099Z,62.13
2022-08-17T04:04:54.358Z,62.31
2022-08-17T04:07:22.838Z,62.38
2022-08-17T04:09:49.833Z,62.33
2022-08-17T04:12:18.139Z,62.33
2022-08-17T04:14:53.588Z,62.36
2022-08-17T04:17:24.767Z,62.63
2022-08-17T04:19:52.079Z,62.73
2022-08-17T04:22:31.184Z,62.68
2022-08-17T04:25:16.394Z,62.68
2022-08-17T04:27:43.342Z,62.87
2022-08-17T04:30:11.221Z,63.11
2022-08-17T04:33:14.631Z,63.13
2022-08-17T04:35:43.730Z,62.98
2022-08-17T04:38:12.339Z,62.77
2022-08-17T04:40:57.813Z,62.86
2022-08-17T04:43:25.575Z,62.97
2022-08-17T04:45:56.521Z,63.00
2022-08-17T04:48:35.745Z,62.82
2022-08-17T04:51:05.808Z,62.85
2022-08-17T04:53:32.949Z,62.73
2022-08-17T04:55:59.898Z,62.35
2022-08-17T04:58:26.745Z,62.54
2022-08-17T05:00:54.247Z,62.55
2022-08-17T05:03:21.260Z,62.64
2022-08-17T05:05:50.046Z,62.49
2022-08-17T05:08:18.848Z,62.30
2022-08-17T05:10:46.046Z,62.29
2022-08-17T05:13:23.706Z,62.35
2022-08-17T05:15:56.588Z,62.52
2022-08-17T05:18:24.652Z,62.74
2022-08-17T05:20:52.492Z,62.70
2022-08-17T05:23:20.615Z,62.25
2022-08-17T05:25:49.760Z,62.30
2022-08-17T05:28:18.615Z,62.26
2022-08-17T05:30:49.320Z,62.30
2022-08-17T05:33:22.138Z,62.65
2022-08-17T05:35:50.230Z,62.74
2022-08-17T05:38:18.515Z,62.51
2022-08-17T05:40:45.537Z,62.64
2022-08-17T05:43:12.785Z,62.54
2022-08-17T05:45:55.957Z,62.27
2022-08-17T05:48:39.176Z,62.16
2022-08-17T05:51:26.660Z,61.64
2022-08-17T05:54:08.864Z,61.23
2022-08-17T05:56:48.096Z,60.91
2022-08-17T05:59:44.736Z,61.07
2022-08-17T06:02:20.590Z,60.53
2022-08-17T06:04:50.605Z,60.33
2022-08-17T06:07:32.499Z,59.75
2022-08-17T06:10:02.515Z,59.49
2022-08-17T06:12:47.176Z,59.67
2022-08-17T06:15:40.133Z,59.73
2022-08-17T06:18:09.120Z,59.30
2022-08-17T06:20:43.133Z,58.45
2022-08-17T06:23:12.387Z,58.13
2022-08-17T06:25:45.136Z,58.44
2022-08-17T06:28:14.890Z,58.54
2022-08-17T06:31:00.794Z,58.60
2022-08-17T06:33:36.690Z,58.06
2022-08-17T06:36:16.038Z,57.97
2022-08-17T06:38:55.947Z,57.35
2022-08-17T06:41:52.384Z,57.20
2022-08-17T06:44:49.923Z,57.05
2022-08-17T06:47:37.165Z,56.63
2022-08-17T06:50:07.643Z,56.03
2022-08-17T06:52:45.901Z,55.93
2022-08-17T06:55:26.369Z,55.18
2022-08-17T06:57:56.050Z,55.46
2022-08-17T07:00:24.799Z,55.56
2022-08-17T07:02:56.819Z,54.73
2022-08-17T07:06:00.420Z,54.28
2022-08-17T07:08:43.034Z,54.48
2022-08-17T07:11:13.355Z,54.23
2022-08-17T07:13:59.045Z,54.49
2022-08-17T07:16:42.380Z,54.69
2022-08-17T07:19:10.978Z,54.57
2022-08-17T07:21:42.108Z,54.39
2022-08-17T07:24:30.174Z,54.26
2022-08-17T07:27:05.107Z,53.79
2022-08-17T07:29:33.360Z,53.39
2022-08-17T07:32:00.310Z,53.02
2022-08-17T07:34:29.045Z,53.15
2022-08-17T07:37:03.484Z,52.06
2022-08-17T07:39:30.824Z,51.85
2022-08-17T07:42:04.185Z,51.98
2022-08-17T07:44:31.239Z,51.65
2022-08-17T07:47:16.724Z,50.99
2022-08-17T07:49:46.484Z,50.70
2022-08-17T07:52:51.776Z,49.95
2022-08-17T07:55:40.652Z,50.35
2022-08-17T07:58:07.909Z,49.84
2022-08-17T08:00:34.964Z,49.49
2022-08-17T08:03:37.240Z,49.69
2022-08-17T08:06:22.212Z,49.82
2022-08-17T08:08:54.987Z,49.36
2022-08-17T08:11:33.133Z,49.30
2022-08-17T08:14:28.426Z,49.23
2022-08-17T08:17:00.802Z,48.93
2022-08-17T08:19:29.240Z,48.62
2022-08-17T08:22:07.765Z,47.48
2022-08-17T08:24:59.638Z,47.34
2022-08-17T08:27:30.375Z,46.02
2022-08-17T08:30:06.744Z,46.45
2022-08-17T08:33:17.375Z,46.46
2022-08-17T08:36:56.938Z,46.39
2022-08-17T08:39:31.293Z,46.85
2022-08-17T08:42:23.771Z,46.55
2022-08-17T08:45:04.761Z,44.44
2022-08-17T08:47:53.879Z,45.69
2022-08-17T08:50:38.075Z,45.49
2022-08-17T08:53:24.344Z,44.91
2022-08-17T08:55:51.189Z,44.95
2022-08-17T08:58:41.888Z,44.86
2022-08-17T09:01:24.579Z,43.45
2022-08-17T09:04:20.021Z,43.14
2022-08-17T09:07:02.746Z,43.85
2022-08-17T09:09:48.538Z,44.24
2022-08-17T09:12:26.138Z,44.32
2022-08-17T09:15:22.265Z,43.82
2022-08-17T09:18:59.040Z,42.97
2022-08-17T09:20:55.793Z,43.07
2022-08-17T09:23:32.683Z,42.49
2022-08-17T09:26:23.014Z,41.80
2022-08-17T09:28:52.483Z,41.70
2022-08-17T09:31:22.498Z,42.38
2022-08-17T09:33:49.233Z,42.59
2022-08-17T09:36:22.052Z,42.65
2022-08-17T09:39:12.331Z,42.60
2022-08-17T09:42:03.339Z,42.12
2022-08-17T09:45:09.204Z,42.09
2022-08-17T09:47:46.822Z,41.52
2022-08-17T09:51:04.481Z,39.42
2022-08-17T09:53:07.541Z,38.16
2022-08-17T09:55:37.651Z,40.65
2022-08-17T09:58:11.875Z,40.89
2022-08-17T10:00:44.389Z,40.15
2022-08-17T10:03:29.733Z,39.46
2022-08-17T10:06:22.264Z,39.83
2022-08-17T10:09:04.788Z,40.27
2022-08-17T10:12:17.638Z,40.34
2022-08-17T10:15:07.993Z,40.49
2022-08-17T10:18:04.349Z,40.57
2022-08-17T10:20:37.646Z,37.93
2022-08-17T10:23:27.328Z,37.75
2022-08-17T10:26:15.678Z,37.54
2022-08-17T10:28:55.333Z,36.45
2022-08-17T10:31:50.130Z,38.60
2022-08-17T10:34:38.758Z,38.96
2022-08-17T10:37:22.018Z,38.14
2022-08-17T10:39:53.055Z,38.06
2022-08-17T10:42:36.429Z,37.46
2022-08-17T10:46:10.363Z,37.90
2022-08-17T10:48:40.536Z,38.92
2022-08-17T10:51:12.910Z,39.45
2022-08-17T10:53:44.154Z,40.15
2022-08-17T10:56:14.290Z,41.37
2022-08-17T10:58:56.474Z,42.12
2022-08-17T11:01:32.879Z,43.02
2022-08-17T11:04:18.430Z,43.79
2022-08-17T11:06:52.297Z,44.30
2022-08-17T11:09:31.562Z,45.15
2022-08-17T11:12:27.094Z,45.63
2022-08-17T11:15:25.277Z,46.01
2022-08-17T11:18:14.963Z,47.03
2022-08-17T11:21:00.135Z,47.90
2022-08-17T11:23:55.140Z,48.27
2022-08-17T11:26:27.328Z,48.64
2022-08-17T11:29:01.738Z,49.60
2022-08-17T11:31:40.661Z,50.44
2022-08-17T11:34:19.017Z,50.57
2022-08-17T11:36:48.993Z,50.73
2022-08-17T11:39:38.233Z,51.01
2022-08-17T11:42:12.046Z,51.68
2022-08-17T11:44:57.455Z,52.67
2022-08-17T11:51:18.600Z,52.60
2022-08-17T11:53:46.166Z,52.57
2022-08-17T11:56:37.684Z,52.83
2022-08-17T11:59:41.103Z,53.16
2022-08-17T12:02:20.430Z,53.37
2022-08-17T12:05:12.874Z,53.67
2022-08-17T12:07:52.143Z,53.66
2022-08-17T12:10:21.821Z,53.66
2022-08-17T12:12:48.872Z,53.59
2022-08-17T12:15:22.222Z,53.63
2022-08-17T12:17:53.859Z,54.05
2022-08-17T12:20:24.328Z,53.71
2022-08-17T12:23:01.050Z,53.80
2022-08-17T12:25:38.131Z,53.88
2022-08-17T12:28:07.664Z,54.16
2022-08-17T12:30:35.098Z,53.83
2022-08-17T12:33:03.997Z,53.72
2022-08-17T12:35:35.551Z,53.70
2022-08-17T12:38:03.933Z,53.76
2022-08-17T12:40:32.210Z,53.79
2022-08-17T12:43:08.067Z,54.14
2022-08-17T12:45:37.018Z,54.25
2022-08-17T12:48:08.005Z,53.86
2022-08-17T12:50:45.453Z,53.86
2022-08-17T12:53:16.448Z,53.26
2022-08-17T12:55:44.626Z,52.68
2022-08-17T12:58:14.494Z,52.16
2022-08-17T13:00:48.659Z,51.73
2022-08-17T13:03:21.140Z,51.31
2022-08-17T13:05:54.233Z,51.21
2022-08-17T13:08:31.730Z,51.28
2022-08-17T13:11:20.259Z,51.20
2022-08-17T13:13:50.972Z,51.32
2022-08-17T13:16:20.520Z,51.22
2022-08-17T13:19:10.316Z,51.71
2022-08-17T13:21:38.596Z,52.21
2022-08-17T13:24:11.687Z,52.54
2022-08-17T13:26:41.321Z,53.27
2022-08-17T13:29:32.813Z,53.16
2022-08-17T13:32:13.444Z,53.10
2022-08-17T13:35:12.880Z,53.87
2022-08-17T13:37:33.442Z,53.62
2022-08-17T13:40:09.614Z,53.08
2022-08-17T13:42:50.215Z,53.04
2022-08-17T13:45:36.301Z,53.07
2022-08-17T13:48:13.752Z,52.86
2022-08-17T13:50:43.131Z,52.65
2022-08-17T13:53:16.484Z,52.75
2022-08-17T13:56:37.932Z,52.58
2022-08-17T13:59:03.281Z,52.53
2022-08-17T14:01:41.307Z,52.50
2022-08-17T14:04:13.512Z,52.41
2022-08-17T14:06:59.575Z,52.23
2022-08-17T14:09:32.445Z,52.48
2022-08-17T14:12:02.550Z,52.45
2022-08-17T14:14:29.820Z,52.45
2022-08-17T14:16:57.652Z,52.50
2022-08-17T14:19:25.556Z,52.69
2022-08-17T14:21:59.070Z,52.87
2022-08-17T14:24:29.566Z,52.81
2022-08-17T14:26:56.746Z,53.08
2022-08-17T14:29:25.850Z,52.95
2022-08-17T14:31:54.278Z,52.94
2022-08-17T14:34:23.095Z,52.75
2022-08-17T14:36:51.438Z,52.66
2022-08-17T14:39:18.762Z,52.42
2022-08-17T14:41:45.917Z,52.25
2022-08-17T14:44:13.483Z,51.93
2022-08-17T14:46:41.157Z,51.77
2022-08-17T14:49:09.319Z,51.54
2022-08-17T14:51:44.022Z,51.01
2022-08-17T14:54:33.389Z,50.71
2022-08-17T14:57:16.143Z,50.96
2022-08-17T14:59:50.672Z,50.96
2022-08-17T15:02:22.538Z,51.16
2022-08-17T15:05:01.990Z,51.03
2022-08-17T15:07:30.658Z,51.09
2022-08-17T15:10:00.732Z,50.94
2022-08-17T15:12:32.317Z,51.04
2022-08-17T15:15:01.155Z,51.04
2022-08-17T15:17:44.661Z,50.81
2022-08-17T15:20:19.259Z,50.58
2022-08-17T15:22:49.970Z,50.57
2022-08-17T15:25:17.908Z,50.45
2022-08-17T15:27:45.103Z,50.24
2022-08-17T15:30:12.912Z,50.17
2022-08-17T15:32:41.343Z,49.93
2022-08-17T15:35:18.086Z,49.81
2022-08-17T15:37:45.344Z,49.72
2022-08-17T15:40:13.091Z,49.32
2022-08-17T15:42:41.185Z,49.16
2022-08-17T15:45:10.901Z,48.74
2022-08-17T15:47:38.461Z,49.05
2022-08-17T15:50:06.740Z,48.96
2022-08-17T15:52:38.302Z,48.74
2022-08-17T15:55:06.379Z,48.78
2022-08-17T15:57:34.048Z,48.82
2022-08-17T16:00:01.273Z,48.76
2022-08-17T16:03:32.004Z,48.29
2022-08-17T16:05:22.027Z,48.98
2022-08-17T16:07:52.284Z,49.08
2022-08-17T16:10:19.927Z,49.15
2022-08-17T16:12:48.678Z,49.19
2022-08-17T16:15:16.486Z,49.26
2022-08-17T16:17:43.568Z,49.18
2022-08-17T16:20:19.928Z,49.17
2022-08-17T16:22:48.281Z,49.39
2022-08-17T16:25:19.014Z,49.41
2022-08-17T16:27:47.048Z,49.32
2022-08-17T16:30:17.663Z,49.35
2022-08-17T16:32:47.335Z,49.36
2022-08-17T16:35:18.378Z,49.29
2022-08-17T16:37:45.554Z,49.46
2022-08-17T16:40:13.908Z,49.32
2022-08-17T16:42:40.997Z,49.27
2022-08-17T16:45:16.944Z,49.47
2022-08-17T16:47:44.059Z,49.56
2022-08-17T16:50:12.819Z,49.59
2022-08-17T16:52:40.113Z,49.61
2022-08-17T16:55:08.489Z,50.03
2022-08-17T16:57:37.642Z,50.15
2022-08-17T17:00:15.486Z,50.44
2022-08-17T17:02:46.938Z,50.60
2022-08-17T17:05:19.130Z,50.77
2022-08-17T17:07:55.632Z,50.79
2022-08-17T17:10:24.794Z,51.18
2022-08-17T17:13:02.247Z,51.34
2022-08-17T17:15:55.405Z,51.44
2022-08-17T17:18:54.763Z,51.59
2022-08-17T17:21:23.471Z,51.89
2022-08-17T17:23:59.827Z,51.94
2022-08-17T17:26:59.218Z,52.10
2022-08-17T17:29:47.671Z,52.32
2022-08-17T17:32:21.893Z,52.48
2022-08-17T17:34:53.800Z,52.76
2022-08-17T17:37:35.092Z,52.67
2022-08-17T17:40:12.182Z,52.80
2022-08-17T17:42:40.275Z,52.98
2022-08-17T17:45:21.101Z,53.30
2022-08-17T17:47:48.429Z,53.20
2022-08-17T17:50:17.294Z,53.34
2022-08-17T17:52:53.760Z,53.39
2022-08-17T17:55:39.241Z,53.80
2022-08-17T17:58:18.171Z,53.82
2022-08-17T18:00:49.240Z,53.95
2022-08-17T18:03:32.949Z,54.09
2022-08-17T18:06:18.645Z,54.15
2022-08-17T18:09:03.898Z,54.30
2022-08-17T18:11:43.120Z,54.41
2022-08-17T18:14:16.544Z,54.60
2022-08-17T18:16:46.501Z,54.61
2022-08-17T18:19:15.045Z,54.78
2022-08-17T18:21:44.827Z,54.81
2022-08-17T18:24:12.282Z,54.89
2022-08-17T18:26:55.120Z,55.03
2022-08-17T18:29:36.386Z,54.99
2022-08-17T18:32:34.008Z,55.13
2022-08-17T18:35:27.775Z,55.17
2022-08-17T18:37:57.755Z,55.22
2022-08-17T18:40:33.810Z,55.22
2022-08-17T18:43:00.626Z,55.37
2022-08-17T18:45:44.972Z,55.54
2022-08-17T18:48:19.922Z,55.62
2022-08-17T18:50:47.178Z,55.68
2022-08-17T18:53:33.418Z,55.84
2022-08-17T18:56:22.141Z,56.05
2022-08-17T18:58:53.841Z,56.20
2022-08-17T19:01:21.376Z,56.27
2022-08-17T19:03:50.162Z,56.34
2022-08-17T19:06:25.756Z,56.24
2022-08-17T19:08:53.006Z,56.18
2022-08-17T19:11:30.176Z,56.47
2022-08-17T19:14:01.474Z,56.61
2022-08-17T19:16:43.927Z,56.59
2022-08-17T19:19:15.313Z,56.69
2022-08-17T19:21:45.500Z,56.77
2022-08-17T19:24:21.016Z,56.90
2022-08-17T19:26:58.338Z,56.87
2022-08-17T19:29:34.309Z,57.05
2022-08-17T19:32:01.293Z,57.05
2022-08-17T19:34:34.002Z,56.99
2022-08-17T19:37:32.638Z,57.20
2022-08-17T19:40:41.775Z,57.25
2022-08-17T19:43:29.000Z,57.38
2022-08-17T19:46:12.467Z,57.43
2022-08-17T19:48:58.023Z,57.59
2022-08-17T19:51:46.065Z,57.64
2022-08-17T19:54:35.109Z,57.69
2022-08-17T19:57:19.696Z,57.70
2022-08-17T20:00:13.579Z,57.75
2022-08-17T20:02:58.448Z,57.83
2022-08-17T20:06:13.469Z,57.77
2022-08-17T20:08:54.296Z,57.89
2022-08-17T20:11:46.441Z,57.89
2022-08-17T20:14:19.947Z,57.98
2022-08-17T20:16:46.996Z,58.17
2022-08-17T20:19:16.854Z,58.17
2022-08-17T20:21:53.917Z,58.07
2022-08-17T20:24:41.972Z,58.03
2022-08-17T20:27:21.072Z,58.34
2022-08-17T20:30:12.117Z,58.42
2022-08-17T20:32:55.750Z,58.50
2022-08-17T20:35:27.733Z,58.68
2022-08-17T20:37:57.817Z,58.74
2022-08-17T20:40:32.234Z,58.69
2022-08-17T20:42:59.690Z,58.72
2022-08-17T20:45:27.354Z,58.82
2022-08-17T20:48:35.067Z,58.87
2022-08-17T20:50:53.708Z,58.84
2022-08-17T20:53:56.188Z,58.81
2022-08-17T20:56:45.250Z,58.93
2022-08-17T20:59:45.156Z,58.95
2022-08-17T21:02:19.533Z,59.09
2022-08-17T21:04:56.667Z,59.13
2022-08-17T21:07:33.116Z,59.12
2022-08-17T21:10:35.793Z,59.23
2022-08-17T21:13:12.597Z,59.20
2022-08-17T21:15:48.641Z,59.28
2022-08-17T21:18:38.879Z,59.24
2022-08-17T21:21:32.018Z,59.38
2022-08-17T21:24:14.111Z,59.19
2022-08-17T21:27:09.048Z,59.18
2022-08-17T21:29:40.360Z,59.24
2022-08-17T21:32:09.521Z,59.39
2022-08-17T21:34:42.862Z,59.32
2022-08-17T21:37:19.131Z,59.54
2022-08-17T21:39:52.658Z,59.58
2022-08-17T21:42:55.110Z,59.53
2022-08-17T21:45:35.236Z,59.75
2022-08-17T21:48:26.049Z,59.82
2022-08-17T21:51:15.563Z,59.87
2022-08-17T21:53:42.509Z,59.90
2022-08-17T21:56:10.983Z,60.06
2022-08-17T21:58:40.518Z,60.24
2022-08-17T22:01:20.085Z,60.14
2022-08-17T22:03:54.203Z,60.03
2022-08-17T22:06:26.480Z,60.15
2022-08-17T22:09:15.103Z,60.12
2022-08-17T22:11:55.876Z,60.26
2022-08-17T22:14:51.551Z,60.28
2022-08-17T22:17:19.365Z,60.32
2022-08-17T22:20:00.174Z,60.27
2022-08-17T22:22:30.162Z,60.19
2022-08-17T22:25:21.245Z,60.14
2022-08-17T22:27:50.442Z,60.20
2022-08-17T22:30:41.392Z,60.05
2022-08-17T22:33:33.841Z,60.11
2022-08-17T22:36:24.852Z,60.14
2022-08-17T22:39:17.404Z,60.20
2022-08-17T22:41:48.344Z,60.41
2022-08-17T22:44:24.514Z,60.43
2022-08-17T22:47:11.786Z,60.36
2022-08-17T22:49:53.991Z,60.45
2022-08-17T22:53:00.607Z,60.62
2022-08-17T22:55:46.621Z,60.73
2022-08-17T22:58:34.156Z,60.70
2022-08-17T23:01:32.577Z,60.66
2022-08-17T23:04:33.091Z,60.64
2022-08-17T23:07:00.025Z,60.63
2022-08-17T23:09:27.080Z,60.56
2022-08-17T23:11:58.973Z,60.59
2022-08-17T23:14:31.728Z,60.55
2022-08-17T23:17:02.200Z,60.59
2022-08-17T23:19:31.595Z,60.66
2022-08-17T23:21:59.547Z,60.64
2022-08-17T23:24:30.615Z,60.50
2022-08-17T23:26:58.360Z,60.65
2022-08-17T23:29:26.227Z,60.69
2022-08-17T23:31:53.109Z,60.81
2022-08-17T23:34:20.126Z,60.88
2022-08-17T23:36:52.510Z,61.06
2022-08-17T23:39:24.355Z,61.18
2022-08-17T23:41:55.521Z,61.26
2022-08-17T23:44:25.433Z,61.46
2022-08-17T23:46:52.895Z,61.47
2022-08-17T23:49:19.948Z,61.59
2022-08-17T23:51:47.343Z,61.58
2022-08-17T23:54:37.566Z,61.74
2022-08-17T23:57:05.100Z,61.80
2022-08-17T23:59:34.070Z,61.74
